Time;durP1;ratioP1;P1;durP2;ratioP2;P2;SDS_P1;SDS_P2;PMS_P1;PMS_P2;Temp;Humidity;BMP_temperature;BMP_pressure;BME280_temperature;BME280_humidity;BME280_pressure;Samples;Min_cycle;Max_cycle;Signal;HPM_P1;HPM_P2
2022/02/01 00:02:04;;;;;;;21.90;4.72;;;3.60;99.90;;;;;;6157079;23;20137;-84
2022/02/01 00:04:36;;;;;;;16.80;4.35;;;3.50;99.90;;;;;;6144203;23;20153;-84
2022/02/01 00:07:16;;;;;;;9.63;3.78;;;3.60;99.90;;;;;;6144304;23;20152;-85
2022/02/01 00:10:07;;;;;;;10.10;3.60;;;5.00;99.90;;;;;;6144652;23;20161;-84
2022/02/01 00:12:52;;;;;;;12.75;3.70;;;3.30;99.90;;;;;;6145156;23;20149;-83
2022/02/01 00:34:46;;;;;;;23.67;4.63;;;3.20;99.90;;;;;;6146496;23;20542;-83
2022/02/01 00:37:16;;;;;;;14.15;3.45;;;3.80;99.90;;;;;;6148314;23;20223;-84
2022/02/01 00:39:45;;;;;;;22.13;4.60;;;3.40;99.90;;;;;;6145341;23;20156;-83
2022/02/01 00:42:12;;;;;;;23.67;4.32;;;3.40;99.90;;;;;;6148472;23;20515;-83
2022/02/01 00:44:39;;;;;;;11.07;2.83;;;3.00;99.90;;;;;;6144269;23;20240;-84
2022/02/01 00:47:06;;;;;;;21.90;4.32;;;3.90;99.90;;;;;;6148324;23;20160;-83
2022/02/01 00:49:33;;;;;;;7.93;3.50;;;5.00;99.90;;;;;;6145896;23;20145;-83
2022/02/01 00:52:00;;;;;;;22.17;4.20;;;3.40;99.90;;;;;;6148103;23;20153;-83
2022/02/01 00:54:26;;;;;;;11.45;3.45;;;3.30;99.90;;;;;;6145738;23;20180;-84
2022/02/01 00:56:52;;;;;;;9.80;3.40;;;3.40;99.90;;;;;;6146548;23;20188;-83
2022/02/01 00:59:17;;;;;;;8.32;2.70;;;3.70;99.90;;;;;;6144413;23;20438;-84
2022/02/01 01:01:43;;;;;;;14.70;2.90;;;3.80;99.90;;;;;;6146650;23;20343;-84
2022/02/01 01:04:09;;;;;;;14.77;3.57;;;3.60;99.90;;;;;;6144662;23;20231;-84
2022/02/01 01:06:34;;;;;;;14.63;3.43;;;3.90;99.90;;;;;;6146560;23;20149;-84
2022/02/01 01:09:01;;;;;;;16.20;2.60;;;3.20;99.90;;;;;;6147054;23;20169;-84
2022/02/01 01:11:26;;;;;;;17.13;4.30;;;4.20;99.90;;;;;;6146451;23;20164;-84
2022/02/01 01:14:35;;;;;;;13.00;3.73;;;3.80;99.90;;;;;;6148006;23;20672;-83
2022/02/01 01:43:52;;;;;;;13.38;6.38;;;3.60;99.90;;;;;;6148112;23;20411;-85
2022/02/01 01:54:15;;;;;;;12.02;3.03;;;3.40;99.90;;;;;;6146115;23;20171;-84
2022/02/01 01:56:41;;;;;;;13.10;3.50;;;3.70;99.90;;;;;;6147869;23;20172;-84
2022/02/01 01:59:08;;;;;;;11.77;2.90;;;3.80;99.90;;;;;;6146473;23;20556;-83
2022/02/01 02:01:35;;;;;;;8.00;3.28;;;4.10;99.90;;;;;;6148124;23;20164;-84
2022/02/01 02:04:04;;;;;;;14.15;3.00;;;3.40;99.90;;;;;;6146141;23;20238;-84
2022/02/01 02:06:33;;;;;;;8.20;3.47;;;3.40;99.90;;;;;;6147667;23;20149;-84
2022/02/01 02:09:05;;;;;;;2.58;2.10;;;3.70;99.90;;;;;;6150845;23;20153;-84
2022/02/01 02:11:42;;;;;;;12.38;2.88;;;3.70;99.90;;;;;;6150773;23;20525;-83
2022/02/01 02:14:24;;;;;;;9.55;2.05;;;3.40;99.90;;;;;;6144660;23;20231;-83
2022/02/01 02:16:58;;;;;;;9.32;2.67;;;4.00;99.90;;;;;;6149622;23;20568;-84
2022/02/01 02:19:26;;;;;;;13.70;2.55;;;3.80;99.90;;;;;;6145339;23;20164;-84
2022/02/01 02:21:58;;;;;;;14.57;3.05;;;3.60;99.90;;;;;;6146210;23;20616;-85
2022/02/01 02:24:27;;;;;;;13.43;2.40;;;3.70;99.90;;;;;;6145694;23;20174;-84
2022/02/01 02:26:55;;;;;;;7.93;2.10;;;3.60;99.90;;;;;;6148463;23;20278;-84
2022/02/01 02:29:21;;;;;;;9.63;2.60;;;3.60;99.90;;;;;;6144894;23;20213;-85
2022/02/01 02:31:46;;;;;;;13.73;2.83;;;3.70;99.90;;;;;;6147841;23;20146;-84
2022/02/01 02:34:14;;;;;;;6.63;3.27;;;4.90;99.90;;;;;;6145146;23;20180;-84
2022/02/01 02:36:44;;;;;;;6.97;3.10;;;3.60;99.90;;;;;;6145542;23;20727;-84
2022/02/01 02:41:54;;;;;;;15.05;4.15;;;3.70;99.90;;;;;;6147112;23;20171;-83
2022/02/01 02:47:05;;;;;;;11.88;3.05;;;3.50;99.90;;;;;;6147496;23;20147;-83
2022/02/01 02:49:31;;;;;;;9.88;2.85;;;3.60;99.90;;;;;;6145355;23;20149;-85
2022/02/01 02:51:56;;;;;;;12.93;3.07;;;3.60;99.90;;;;;;6147349;23;20373;-85
2022/02/01 02:54:25;;;;;;;7.67;3.10;;;3.60;99.90;;;;;;6144473;23;20156;-84
2022/02/01 02:56:56;;;;;;;12.23;2.80;;;3.50;99.90;;;;;;6146984;23;20652;-84
2022/02/01 02:59:36;;;;;;;8.27;2.70;;;3.60;99.90;;;;;;6144972;23;20145;-85
2022/02/01 03:02:03;;;;;;;4.20;2.90;;;3.60;99.90;;;;;;6145843;23;20172;-84
2022/02/01 03:04:31;;;;;;;8.18;2.35;;;3.70;99.90;;;;;;6143049;23;20160;-83
2022/02/01 03:06:58;;;;;;;7.85;2.20;;;3.70;99.90;;;;;;6146044;23;20405;-84
2022/02/01 03:09:24;;;;;;;4.43;2.35;;;3.70;99.90;;;;;;6143091;23;20321;-83
2022/02/01 03:11:53;;;;;;;7.82;2.22;;;3.50;99.90;;;;;;6145505;23;20144;-83
2022/02/01 03:14:24;;;;;;;11.55;2.15;;;3.90;99.90;;;;;;6143389;23;20168;-84
2022/02/01 03:17:15;;;;;;;7.05;1.90;;;3.60;99.90;;;;;;6145088;23;20554;-85
2022/02/01 03:19:50;;;;;;;10.75;2.40;;;4.70;99.90;;;;;;6144498;23;20167;-84
2022/02/01 03:22:21;;;;;;;8.52;2.50;;;3.70;99.90;;;;;;6145763;23;20156;-84
2022/02/01 03:24:47;;;;;;;10.70;2.50;;;3.00;99.90;;;;;;6145221;23;20446;-85
2022/02/01 03:27:13;;;;;;;8.43;2.70;;;5.00;99.90;;;;;;6147445;23;20152;-84
2022/02/01 03:29:39;;;;;;;4.07;1.70;;;6.40;99.90;;;;;;6144572;23;20153;-84
2022/02/01 03:32:06;;;;;;;7.05;2.60;;;3.80;99.90;;;;;;6147087;23;20168;-85
2022/02/01 03:34:31;;;;;;;3.80;1.60;;;3.70;99.90;;;;;;6144717;23;20193;-84
2022/02/01 03:37:00;;;;;;;6.90;2.97;;;3.70;99.90;;;;;;6146897;23;20495;-85
2022/02/01 03:39:26;;;;;;;3.95;1.90;;;4.80;99.90;;;;;;6143089;23;20532;-84
2022/02/01 03:41:52;;;;;;;15.53;2.50;;;;;;;;;;6145136;23;20211;-85
2022/02/01 03:44:22;;;;;;;9.98;2.75;;;3.80;99.90;;;;;;6144870;23;20511;-84
2022/02/01 03:47:01;;;;;;;6.55;2.10;;;3.90;99.90;;;;;;6145794;23;20239;-85
2022/02/01 03:49:46;;;;;;;12.32;2.50;;;3.60;99.90;;;;;;6144457;23;20155;-83
2022/02/01 03:52:13;;;;;;;16.20;2.70;;;3.70;99.90;;;;;;6144301;23;20157;-83
2022/02/01 03:54:39;;;;;;;5.13;1.80;;;3.60;99.90;;;;;;6145967;23;20497;-83
2022/02/01 03:57:08;;;;;;;6.47;1.70;;;3.40;99.90;;;;;;6149886;23;20189;-86
2022/02/01 03:59:34;;;;;;;3.58;1.65;;;3.60;99.90;;;;;;6150687;23;20164;-83
2022/02/01 04:02:01;;;;;;;6.43;1.97;;;3.80;99.90;;;;;;6156401;23;20593;-84
2022/02/01 04:04:30;;;;;;;8.48;1.73;;;3.60;99.90;;;;;;6151726;23;20396;-84
2022/02/01 04:06:55;;;;;;;6.90;2.00;;;3.70;99.90;;;;;;6147762;23;20688;-83
2022/02/01 04:09:23;;;;;;;12.13;2.63;;;3.40;99.90;;;;;;6147275;23;20153;-84
2022/02/01 04:11:49;;;;;;;8.30;3.10;;;5.40;99.90;;;;;;6147878;23;20493;-84
2022/02/01 04:14:18;;;;;;;14.30;3.90;;;2.90;99.90;;;;;;6145427;23;20164;-84
2022/02/01 04:16:44;;;;;;;7.30;3.25;;;3.70;99.90;;;;;;6148791;23;20545;-83
2022/02/01 04:19:10;;;;;;;11.00;2.83;;;3.60;99.90;;;;;;6144986;23;20168;-83
2022/02/01 04:21:37;;;;;;;8.33;2.40;;;3.50;99.90;;;;;;6147153;23;20458;-83
2022/02/01 04:24:02;;;;;;;18.05;3.63;;;3.50;99.90;;;;;;6146945;23;20169;-82
2022/02/01 04:26:28;;;;;;;15.20;3.30;;;3.60;99.90;;;;;;6148984;23;20140;-83
2022/02/01 04:28:54;;;;;;;8.10;1.97;;;3.60;99.90;;;;;;6151598;23;20161;-83
2022/02/01 04:31:19;;;;;;;6.23;2.57;;;4.00;99.90;;;;;;6146946;23;20236;-83
2022/02/01 04:33:45;;;;;;;8.27;2.90;;;3.50;99.90;;;;;;6151275;23;20548;-83
2022/02/01 04:36:12;;;;;;;8.87;1.67;;;3.70;99.90;;;;;;6146776;23;20197;-84
2022/02/01 04:38:40;;;;;;;8.50;2.17;;;3.50;99.90;;;;;;6150541;23;20183;-84
2022/02/01 04:41:06;;;;;;;10.55;2.60;;;4.10;99.90;;;;;;6147132;23;20153;-85
2022/02/01 04:43:32;;;;;;;9.90;2.63;;;3.40;99.90;;;;;;6148699;23;20613;-84
2022/02/01 04:46:04;;;;;;;9.73;2.47;;;3.20;99.90;;;;;;6145135;23;20615;-84
2022/02/01 04:48:30;;;;;;;6.60;1.27;;;3.30;99.90;;;;;;6146639;23;20392;-84
2022/02/01 04:50:57;;;;;;;9.40;1.80;;;3.10;99.90;;;;;;6144859;23;20625;-85
2022/02/01 04:53:23;;;;;;;8.23;2.50;;;4.90;99.90;;;;;;6146310;23;20795;-85
2022/02/01 04:55:54;;;;;;;3.40;2.00;;;;;;;;;;6146729;23;20169;-85
2022/02/01 04:58:24;;;;;;;4.00;2.47;;;3.40;99.90;;;;;;6146822;23;20180;-85
2022/02/01 05:00:51;;;;;;;6.88;2.10;;;3.50;99.90;;;;;;6146253;23;20508;-84
2022/02/01 05:03:17;;;;;;;4.15;2.10;;;3.40;99.90;;;;;;6148671;23;20149;-85
2022/02/01 05:05:44;;;;;;;6.20;2.17;;;3.40;99.90;;;;;;6146744;23;20525;-85
2022/02/01 05:08:12;;;;;;;6.53;2.00;;;3.40;99.90;;;;;;6146497;23;20196;-82
2022/02/01 05:10:39;;;;;;;8.23;3.38;;;3.40;99.90;;;;;;6144621;23;20190;-84
2022/02/01 05:16:19;;;;;;;5.75;2.67;;;4.10;99.90;;;;;;6146953;23;20243;-84
2022/02/01 05:19:01;;;;;;;4.68;2.17;;;3.40;99.90;;;;;;6148505;23;20164;-84
2022/02/01 05:21:27;;;;;;;4.65;2.33;;;3.20;99.90;;;;;;6149776;23;20137;-84
2022/02/01 05:23:54;;;;;;;17.30;2.50;;;2.70;99.90;;;;;;6148050;23;20172;-85
2022/02/01 05:26:22;;;;;;;5.78;1.48;;;4.10;99.90;;;;;;6147732;23;20159;-85
2022/02/01 05:28:48;;;;;;;11.65;2.13;;;3.40;99.90;;;;;;6147930;23;20164;-83
2022/02/01 05:31:13;;;;;;;13.90;1.97;;;3.50;99.90;;;;;;6145256;23;20169;-85
2022/02/01 05:33:39;;;;;;;6.40;2.70;;;3.50;99.90;;;;;;6148655;23;20589;-84
2022/02/01 05:36:07;;;;;;;12.73;3.97;;;3.50;99.90;;;;;;6146501;23;20196;-85
2022/02/01 05:38:34;;;;;;;5.18;3.20;;;3.50;99.90;;;;;;6146600;23;20176;-83
2022/02/01 05:41:00;;;;;;;5.18;2.35;;;3.30;99.90;;;;;;6146041;23;20180;-84
2022/02/01 05:43:27;;;;;;;8.85;2.58;;;3.30;99.90;;;;;;6147978;23;20489;-84
2022/02/01 05:45:56;;;;;;;7.53;3.75;;;3.50;99.90;;;;;;6144387;23;20156;-83
2022/02/01 05:48:22;;;;;;;6.85;1.60;;;3.50;99.90;;;;;;6141370;23;20283;-84
2022/02/01 05:50:49;;;;;;;15.05;3.33;;;3.60;99.90;;;;;;6147246;23;20239;-84
2022/02/01 05:53:18;;;;;;;18.90;2.63;;;3.40;99.90;;;;;;6144914;23;20247;-84
2022/02/01 05:55:47;;;;;;;7.65;2.10;;;3.80;99.90;;;;;;6146293;23;20184;-84
2022/02/01 05:58:13;;;;;;;5.75;2.08;;;3.30;99.90;;;;;;6148800;23;20145;-84
2022/02/01 06:00:43;;;;;;;7.35;2.50;;;3.70;99.90;;;;;;6144986;23;20202;-84
2022/02/01 06:03:08;;;;;;;9.65;2.92;;;3.80;99.90;;;;;;6145738;23;20157;-85
2022/02/01 06:05:34;;;;;;;13.03;3.80;;;3.30;99.90;;;;;;6145455;23;20165;-83
2022/02/01 06:07:59;;;;;;;6.23;1.93;;;3.20;99.90;;;;;;6139245;23;20192;-83
2022/02/01 06:10:25;;;;;;;4.97;2.97;;;4.30;99.90;;;;;;6142219;23;20153;-85
2022/02/01 06:12:52;;;;;;;15.77;3.47;;;;;;;;;;6140224;23;20504;-84
2022/02/01 06:15:23;;;;;;;6.18;3.25;;;3.60;99.90;;;;;;6142815;23;20431;-84
2022/02/01 06:17:48;;;;;;;9.10;2.60;;;3.50;99.90;;;;;;6142195;23;20172;-83
2022/02/01 06:20:17;;;;;;;13.47;4.00;;;3.40;99.90;;;;;;6143459;23;20651;-83
2022/02/01 06:22:43;;;;;;;6.18;2.95;;;3.60;99.90;;;;;;6138727;23;20164;-84
2022/02/01 06:25:10;;;;;;;7.45;3.40;;;3.60;99.90;;;;;;6142380;23;20155;-84
2022/02/01 06:27:36;;;;;;;9.05;3.42;;;3.40;99.90;;;;;;6141403;23;20163;-85
2022/02/01 06:30:04;;;;;;;10.50;4.00;;;3.20;99.90;;;;;;6137734;23;20593;-83
2022/02/01 06:32:35;;;;;;;6.15;2.42;;;3.80;99.90;;;;;;6140912;23;20179;-84
2022/02/01 06:35:01;;;;;;;14.63;2.75;;;3.60;99.90;;;;;;6143960;23;20196;-83
2022/02/01 06:37:26;;;;;;;6.43;3.40;;;3.70;99.90;;;;;;6139344;23;20198;-83
2022/02/01 06:39:52;;;;;;;13.40;2.53;;;3.50;99.90;;;;;;6143942;23;20159;-83
2022/02/01 06:42:18;;;;;;;5.27;3.03;;;3.70;99.90;;;;;;6139749;23;20735;-84
2022/02/01 06:44:43;;;;;;;6.83;3.40;;;4.20;99.90;;;;;;6145135;23;20152;-85
2022/02/01 06:47:09;;;;;;;7.40;4.00;;;3.80;99.90;;;;;;6142289;23;20168;-85
2022/02/01 06:49:35;;;;;;;9.70;3.27;;;3.30;99.90;;;;;;6145415;23;20883;-86
2022/02/01 06:52:02;;;;;;;7.87;3.20;;;3.80;99.90;;;;;;6143124;23;20485;-88
2022/02/01 06:54:30;;;;;;;13.00;3.10;;;3.60;99.90;;;;;;6149750;23;20412;-88
2022/02/01 06:56:57;;;;;;;3.05;2.22;;;3.90;99.90;;;;;;6143971;23;20188;-85
2022/02/01 06:59:23;;;;;;;7.18;2.10;;;3.90;99.90;;;;;;6143767;23;20137;-84
2022/02/01 07:01:48;;;;;;;10.10;3.63;;;4.00;99.90;;;;;;6144070;23;20203;-86
2022/02/01 07:04:14;;;;;;;3.80;2.27;;;3.90;99.90;;;;;;6147922;23;20196;-85
2022/02/01 07:06:40;;;;;;;5.60;2.50;;;3.80;99.90;;;;;;6145983;23;20307;-86
2022/02/01 07:09:06;;;;;;;8.87;3.63;;;4.20;99.90;;;;;;6147010;23;20383;-85
2022/02/01 07:11:32;;;;;;;11.50;2.70;;;3.90;99.90;;;;;;6147581;23;20586;-85
2022/02/01 07:13:58;;;;;;;5.20;2.65;;;6.60;99.90;;;;;;6145959;23;20780;-85
2022/02/01 07:16:24;;;;;;;10.65;3.20;;;3.90;99.90;;;;;;6153085;23;20267;-86
2022/02/01 07:18:53;;;;;;;6.60;2.20;;;4.20;99.90;;;;;;6150043;23;20383;-86
2022/02/01 07:21:18;;;;;;;9.15;3.63;;;3.90;99.90;;;;;;6150319;23;20541;-85
2022/02/01 07:23:45;;;;;;;10.97;1.77;;;;;;;;;;6146493;23;20157;-88
2022/02/01 07:26:13;;;;;;;8.13;3.10;;;3.90;99.90;;;;;;6146150;23;20157;-85
2022/02/01 07:28:40;;;;;;;10.65;2.67;;;5.70;99.90;;;;;;6145691;23;20157;-84
2022/02/01 07:31:08;;;;;;;8.38;2.70;;;3.80;99.90;;;;;;6147720;23;20176;-82
2022/02/01 07:33:36;;;;;;;14.93;3.60;;;4.00;99.90;;;;;;6143194;23;20164;-82
2022/02/01 07:36:02;;;;;;;9.07;3.13;;;;;;;;;;6148096;23;20200;-84
2022/02/01 07:38:30;;;;;;;10.75;3.13;;;;;;;;;;6142297;23;20719;-86
2022/02/01 07:40:57;;;;;;;5.88;2.65;;;4.00;99.90;;;;;;6146938;23;20157;-84
2022/02/01 07:43:30;;;;;;;9.60;3.92;;;4.10;99.90;;;;;;6143307;23;20199;-84
2022/02/01 07:45:57;;;;;;;10.95;2.45;;;4.60;99.90;;;;;;6148591;23;20612;-82
2022/02/01 07:48:22;;;;;;;13.07;4.05;;;4.00;99.90;;;;;;6146031;23;20634;-84
2022/02/01 07:50:48;;;;;;;9.60;3.13;;;4.50;99.90;;;;;;6151055;23;20145;-84
2022/02/01 07:53:17;;;;;;;4.37;2.97;;;4.60;99.90;;;;;;6148660;23;20224;-85
2022/02/01 07:55:43;;;;;;;5.65;2.95;;;4.20;99.90;;;;;;6149814;23;20276;-84
2022/02/01 07:58:12;;;;;;;5.17;3.43;;;4.40;99.90;;;;;;6146529;23;20160;-83
2022/02/01 08:00:37;;;;;;;15.65;3.88;;;4.00;99.90;;;;;;6136409;23;20198;-84
2022/02/01 08:03:03;;;;;;;5.47;3.70;;;4.20;99.90;;;;;;6144388;23;20240;-83
2022/02/01 08:05:30;;;;;;;3.40;3.27;;;4.20;99.90;;;;;;6146774;23;20207;-84
2022/02/01 08:07:58;;;;;;;8.90;2.97;;;4.20;99.90;;;;;;6144814;23;20166;-84
2022/02/01 08:10:30;;;;;;;9.13;3.97;;;6.80;99.90;;;;;;6147697;23;20578;-80
2022/02/01 08:20:46;;;;;;;6.18;5.57;;;4.10;99.90;;;;;;6147397;23;20472;-84
2022/02/01 08:23:23;;;;;;;10.05;5.65;;;4.20;99.90;;;;;;6148862;23;20231;-82
2022/02/01 08:25:51;;;;;;;15.90;5.15;;;3.70;99.90;;;;;;6146827;23;20160;-83
2022/02/01 08:28:24;;;;;;;7.55;5.15;;;4.10;99.90;;;;;;6148134;23;20655;-83
2022/02/01 08:30:50;;;;;;;9.18;5.53;;;4.10;99.90;;;;;;6148472;23;20153;-83
2022/02/01 08:33:17;;;;;;;21.02;5.97;;;;;;;;;;6150141;23;20688;-85
2022/02/01 08:35:45;;;;;;;16.90;7.35;;;4.10;99.90;;;;;;6148470;23;20192;-83
2022/02/01 08:38:11;;;;;;;18.80;5.30;;;4.70;99.90;;;;;;6148630;23;20244;-81
2022/02/01 08:40:37;;;;;;;13.30;5.30;;;;;;;;;;6148481;23;20378;-83
2022/02/01 08:43:03;;;;;;;10.33;5.80;;;4.00;99.90;;;;;;6149077;23;20164;-84
2022/02/01 08:45:31;;;;;;;17.27;6.95;;;5.70;99.90;;;;;;6146138;23;20392;-83
2022/02/01 08:47:58;;;;;;;12.43;6.38;;;4.10;99.90;;;;;;6149251;23;20189;-83
2022/02/01 08:50:28;;;;;;;11.40;6.25;;;4.10;99.90;;;;;;6150905;23;20786;-83
2022/02/01 08:52:59;;;;;;;11.13;6.65;;;4.30;99.90;;;;;;6150058;23;20159;-84
2022/02/01 08:55:39;;;;;;;14.32;7.28;;;4.20;99.90;;;;;;6147344;23;20200;-84
2022/02/01 08:58:05;;;;;;;7.10;5.60;;;3.90;99.90;;;;;;6147001;23;20149;-83
2022/02/01 09:00:32;;;;;;;6.68;5.63;;;4.30;99.90;;;;;;6149271;23;20145;-83
2022/02/01 09:03:05;;;;;;;15.27;5.95;;;4.50;99.90;;;;;;6150027;23;20157;-84
2022/02/01 09:05:33;;;;;;;13.35;7.10;;;5.00;99.90;;;;;;6143155;23;20612;-84
2022/02/01 09:08:01;;;;;;;15.95;6.78;;;4.40;99.90;;;;;;6144100;23;20520;-83
2022/02/01 09:10:31;;;;;;;4.78;3.70;;;5.20;99.90;;;;;;6145378;23;20155;-84
2022/02/01 09:12:57;;;;;;;14.05;6.93;;;5.00;99.90;;;;;;6146245;23;20165;-85
2022/02/01 09:15:24;;;;;;;10.38;7.22;;;2.10;99.90;;;;;;6146924;23;20149;-82
2022/02/01 09:17:51;;;;;;;6.50;4.32;;;4.30;99.90;;;;;;6150535;23;20163;-84
2022/02/01 09:20:28;;;;;;;8.55;7.85;;;4.30;99.90;;;;;;6148797;23;20623;-84
2022/02/01 09:22:54;;;;;;;5.65;5.05;;;4.40;99.90;;;;;;6152779;23;20482;-86
2022/02/01 09:25:21;;;;;;;8.73;4.25;;;3.70;99.90;;;;;;6149231;23;20164;-84
2022/02/01 09:27:51;;;;;;;11.73;9.90;;;4.30;99.90;;;;;;6150407;23;20155;-85
2022/02/01 09:30:18;;;;;;;14.68;9.75;;;4.40;99.90;;;;;;6147806;23;20179;-83
2022/02/01 09:32:44;;;;;;;8.25;7.53;;;4.00;99.90;;;;;;6150853;23;20163;-84
2022/02/01 09:35:14;;;;;;;16.55;9.45;;;4.30;99.90;;;;;;6134390;23;20205;-81
2022/02/01 09:37:40;;;;;;;13.07;9.07;;;4.30;99.90;;;;;;6116501;23;20491;-83
2022/02/01 09:40:14;;;;;;;10.20;7.65;;;4.30;99.90;;;;;;6150456;23;20204;-82
2022/02/01 09:42:40;;;;;;;17.98;10.25;;;4.50;99.90;;;;;;6147614;23;20177;-81
2022/02/01 09:45:07;;;;;;;13.33;11.03;;;4.30;99.90;;;;;;6148514;23;20187;-82
2022/02/01 09:47:38;;;;;;;16.23;11.40;;;4.30;99.90;;;;;;6146050;23;20388;-80
2022/02/01 09:50:06;;;;;;;15.35;11.35;;;4.40;99.90;;;;;;6148414;23;20503;-82
2022/02/01 09:52:32;;;;;;;17.38;9.88;;;4.60;99.90;;;;;;6120062;23;20161;-82
2022/02/01 09:55:02;;;;;;;15.60;10.95;;;4.20;99.90;;;;;;6121973;23;20163;-82
2022/02/01 09:57:27;;;;;;;11.50;9.65;;;3.80;99.90;;;;;;6119725;23;20192;-79
2022/02/01 09:59:55;;;;;;;10.27;6.20;;;5.30;99.90;;;;;;6121654;23;20476;-84
2022/02/01 10:02:22;;;;;;;9.23;7.75;;;4.50;99.90;;;;;;6145938;23;20184;-81
2022/02/01 10:05:08;;;;;;;15.75;13.10;;;4.50;99.90;;;;;;6121313;23;20260;-82
2022/02/01 10:07:47;;;;;;;13.77;9.55;;;4.60;99.90;;;;;;6118888;23;20160;-83
2022/02/01 10:10:13;;;;;;;14.07;9.27;;;4.70;99.90;;;;;;6121528;23;20527;-82
2022/02/01 10:12:40;;;;;;;12.43;9.73;;;3.60;99.90;;;;;;6145491;23;20233;-82
2022/02/01 10:15:18;;;;;;;12.63;7.82;;;5.30;99.90;;;;;;6122462;23;20692;-82
2022/02/01 10:17:56;;;;;;;13.23;11.80;;;4.50;99.90;;;;;;6119430;23;20192;-81
2022/02/01 10:20:41;;;;;;;5.63;5.10;;;4.60;99.90;;;;;;6121911;23;20160;-83
2022/02/01 10:23:25;;;;;;;15.07;11.27;;;4.70;99.90;;;;;;6146861;23;20172;-80
2022/02/01 10:25:59;;;;;;;12.38;10.85;;;4.20;99.90;;;;;;6123237;23;20502;-83
2022/02/01 10:28:32;;;;;;;11.43;9.80;;;4.50;99.90;;;;;;6147210;23;20184;-82
2022/02/01 10:31:04;;;;;;;12.38;8.80;;;4.50;99.90;;;;;;6122794;23;20203;-81
2022/02/01 10:36:35;;;;;;;5.50;5.10;;;6.30;99.90;;;;;;6068671;23;20197;-82
2022/02/01 10:39:00;;;;;;;10.95;8.45;;;4.90;99.90;;;;;;6087667;23;20150;-83
2022/02/01 10:41:26;;;;;;;10.27;9.10;;;4.70;99.90;;;;;;6086789;23;20173;-82
2022/02/01 10:43:52;;;;;;;10.90;9.70;;;4.90;99.90;;;;;;6085719;23;20602;-83
2022/02/01 10:46:20;;;;;;;11.07;8.30;;;4.70;99.90;;;;;;6087451;23;20516;-83
2022/02/01 10:48:47;;;;;;;11.43;10.25;;;5.30;99.90;;;;;;6086286;23;20154;-82
2022/02/01 10:51:15;;;;;;;9.20;8.30;;;4.70;99.90;;;;;;6086711;23;20244;-82
2022/02/01 10:53:42;;;;;;;11.30;8.73;;;4.70;99.90;;;;;;6084313;23;20158;-81
2022/02/01 10:56:14;;;;;;;9.20;8.30;;;4.90;99.90;;;;;;6086964;23;20273;-83
2022/02/01 10:58:40;;;;;;;12.60;10.20;;;5.20;99.90;;;;;;6086336;23;20383;-82
2022/02/01 11:01:07;;;;;;;9.98;8.50;;;5.00;99.90;;;;;;6088481;23;20617;-83
2022/02/01 11:03:34;;;;;;;10.57;9.40;;;5.00;99.90;;;;;;6086201;23;20261;-83
2022/02/01 11:06:01;;;;;;;11.82;9.93;;;7.20;99.90;;;;;;6089404;23;20158;-82
2022/02/01 11:08:39;;;;;;;8.68;7.88;;;4.90;99.90;;;;;;6088358;23;20162;-84
2022/02/01 11:11:06;;;;;;;9.60;7.72;;;5.30;99.90;;;;;;6089034;23;20225;-84
2022/02/01 11:13:47;;;;;;;10.52;9.43;;;5.40;99.90;;;;;;6085160;23;20173;-84
2022/02/01 11:16:17;;;;;;;6.57;5.95;;;5.40;99.90;;;;;;6089281;23;20680;-84
2022/02/01 11:19:00;;;;;;;11.68;8.63;;;6.30;99.90;;;;;;6087239;23;20150;-84
2022/02/01 11:21:27;;;;;;;8.15;7.60;;;5.40;99.90;;;;;;6082603;23;20241;-83
2022/02/01 11:23:58;;;;;;;10.20;9.40;;;5.00;99.90;;;;;;6083083;23;20606;-82
2022/02/01 11:26:50;;;;;;;8.43;7.10;;;7.40;99.90;;;;;;6081878;23;20219;-82
2022/02/01 11:29:50;;;;;;;9.55;8.70;;;5.40;99.90;;;;;;6083026;23;20156;-83
2022/02/01 11:32:19;;;;;;;7.22;6.63;;;5.20;99.90;;;;;;6081618;23;20512;-80
2022/02/01 11:34:45;;;;;;;6.10;5.60;;;5.70;99.90;;;;;;6090075;23;20598;-82
2022/02/01 11:37:25;;;;;;;5.83;5.40;;;5.60;99.90;;;;;;6088668;23;20193;-84
2022/02/01 11:40:04;;;;;;;6.00;5.65;;;5.60;99.90;;;;;;6085807;23;20153;-82
2022/02/01 11:42:34;;;;;;;6.30;5.72;;;5.60;99.90;;;;;;6118076;23;20137;-81
2022/02/01 11:45:10;;;;;;;7.53;6.97;;;5.70;99.90;;;;;;6115991;23;20430;-82
2022/02/01 11:47:38;;;;;;;5.13;4.82;;;5.30;99.90;;;;;;6118500;23;20200;-81
2022/02/01 11:53:33;;;;;;;5.35;4.97;;;;;;;;;;6127480;23;20212;-90
2022/02/01 11:56:00;;;;;;;4.60;4.40;;;5.70;99.90;;;;;;6106467;23;20185;-91
2022/02/01 11:58:37;;;;;;;5.72;4.50;;;5.80;99.90;;;;;;6129559;23;20385;-88
2022/02/01 12:01:07;;;;;;;4.68;4.35;;;6.40;99.90;;;;;;6138097;23;20141;-90
2022/02/01 12:03:38;;;;;;;5.60;5.25;;;5.70;99.90;;;;;;6109800;23;20164;-91
2022/02/01 12:06:39;;;;;;;5.00;4.72;;;7.20;99.90;;;;;;6116914;23;20165;-90
2022/02/01 12:12:46;;;;;;;3.97;3.85;;;6.50;99.90;;;;;;6116633;23;20161;-90
2022/02/01 12:15:18;;;;;;;4.57;4.32;;;6.00;99.90;;;;;;6104255;23;20236;-82
2022/02/01 12:17:54;;;;;;;2.90;2.80;;;5.90;99.90;;;;;;6123117;23;20265;-84
2022/02/01 12:20:23;;;;;;;4.40;3.60;;;6.00;99.90;;;;;;6147963;23;20183;-82
2022/02/01 12:22:58;;;;;;;5.10;4.85;;;6.00;99.90;;;;;;6148212;23;20156;-82
2022/02/01 12:25:25;;;;;;;4.63;4.43;;;6.00;99.90;;;;;;6148319;23;20410;-82
2022/02/01 12:28:16;;;;;;;3.63;3.42;;;6.00;99.90;;;;;;6123446;23;20553;-84
2022/02/01 12:30:45;;;;;;;3.33;3.33;;;6.40;99.90;;;;;;6148875;23;20576;-82
2022/02/01 12:33:22;;;;;;;4.20;4.00;;;6.00;99.90;;;;;;6126780;23;20164;-82
2022/02/01 12:35:52;;;;;;;4.63;4.53;;;6.20;99.90;;;;;;6124675;23;20211;-81
2022/02/01 12:38:21;;;;;;;3.78;3.58;;;6.20;99.90;;;;;;6127725;23;20215;-83
2022/02/01 12:41:22;;;;;;;3.55;3.45;;;6.30;99.90;;;;;;6149099;23;20187;-83
2022/02/01 12:46:39;;;;;;;4.35;4.25;;;6.20;99.90;;;;;;6149833;23;20148;-82
2022/02/01 12:52:26;;;;;;;3.05;3.05;;;6.20;99.90;;;;;;6124419;23;20255;-88
2022/02/01 12:56:11;;;;;;;3.70;3.60;;;8.90;99.90;;;;;;6105749;23;20220;-89
2022/02/01 12:58:28;;;;;;;3.50;3.30;;;7.60;99.90;;;;;;6151006;23;20208;-85
2022/02/01 13:04:08;;;;;;;3.42;3.33;;;6.10;99.90;;;;;;6168780;23;20179;-87
2022/02/01 13:07:20;;;;;;;4.32;4.20;;;6.30;99.90;;;;;;6119039;23;20297;-88
2022/02/01 13:22:21;;;;;;;3.45;3.35;;;6.50;99.90;;;;;;6200540;23;20519;-87
2022/02/01 13:25:07;;;;;;;5.80;5.40;;;6.50;99.90;;;;;;6176628;23;20148;-88
2022/02/01 13:30:19;;;;;;;4.72;4.43;;;6.60;99.90;;;;;;6167534;23;20210;-84
2022/02/01 13:33:04;;;;;;;4.32;4.15;;;6.60;99.90;;;;;;6175786;23;20136;-85
2022/02/01 13:35:30;;;;;;;4.20;3.90;;;7.20;99.90;;;;;;6177131;23;20133;-90
2022/02/01 13:37:59;;;;;;;4.47;4.18;;;;;;;;;;6147771;23;20169;-84
2022/02/01 13:41:01;;;;;;;2.00;2.00;;;6.70;99.90;;;;;;6168585;23;20133;-86
2022/02/01 13:43:27;;;;;;;2.83;2.72;;;7.80;99.90;;;;;;6092055;23;20164;-88
2022/02/01 13:46:04;;;;;;;1.53;1.53;;;6.60;99.90;;;;;;6169891;23;20233;-88
2022/02/01 13:48:32;;;;;;;4.88;4.40;;;6.80;99.90;;;;;;6137854;23;20397;-78
2022/02/01 13:51:08;;;;;;;3.90;3.70;;;6.40;99.90;;;;;;6178533;23;20196;-85
2022/02/01 13:54:06;;;;;;;3.60;3.50;;;9.90;99.90;;;;;;6171675;23;20203;-88
2022/02/01 13:56:49;;;;;;;3.72;3.63;;;9.40;99.90;;;;;;6165285;23;20175;-86
2022/02/01 14:00:07;;;;;;;3.90;3.70;;;6.80;99.90;;;;;;6190502;23;20132;-88
2022/02/01 14:02:37;;;;;;;4.15;4.05;;;9.10;99.90;;;;;;6182812;23;20148;-89
2022/02/01 14:05:22;;;;;;;4.40;4.15;;;6.70;99.90;;;;;;6190365;23;20587;-86
2022/02/01 14:36:42;;;;;;;10.45;9.40;;;7.40;99.90;;;;;;6188487;23;20655;-85
2022/02/01 14:43:17;;;;;;;19.35;14.23;;;7.90;99.90;;;;;;6181788;23;20266;-86
2022/02/01 14:45:44;;;;;;;30.08;17.25;;;7.40;99.90;;;;;;6185505;23;20591;-86
2022/02/01 14:48:12;;;;;;;26.17;16.25;;;7.30;99.90;;;;;;6185459;23;20689;-86
2022/02/01 14:50:56;;;;;;;23.33;17.13;;;7.30;99.90;;;;;;6178964;23;20654;-86
2022/02/01 14:53:25;;;;;;;31.60;19.55;;;7.40;99.90;;;;;;6162450;23;20404;-84
2022/02/01 15:11:20;;;;;;;30.53;19.30;;;7.60;99.90;;;;;;6195299;23;20206;-87
2022/02/01 15:13:37;;;;;;;19.17;14.33;;;8.00;99.90;;;;;;6192357;23;20289;-87
2022/02/01 15:16:06;;;;;;;18.95;15.30;;;7.80;99.90;;;;;;6157348;23;20442;-87
2022/02/01 15:18:34;;;;;;;24.35;15.25;;;7.80;99.90;;;;;;6170653;23;20159;-86
2022/02/01 15:21:00;;;;;;;17.13;14.40;;;7.30;99.90;;;;;;6167212;23;20163;-87
2022/02/01 15:23:26;;;;;;;23.27;13.70;;;;;;;;;;6160966;23;20144;-85
2022/02/01 15:25:55;;;;;;;20.87;12.03;;;7.80;99.90;;;;;;6164590;23;20164;-86
2022/02/01 15:31:09;;;;;;;19.60;16.05;;;8.00;99.90;;;;;;6141596;23;20442;-84
2022/02/01 15:48:36;;;;;;;15.68;13.02;;;7.50;99.90;;;;;;5110915;27;20963;-84
2022/02/01 15:57:48;;;;;;;18.33;14.02;;;9.70;99.90;;;;;;5092685;28;20246;-86
2022/02/01 16:00:30;;;;;;;11.18;8.85;;;7.70;99.90;;;;;;5088598;28;20174;-87
2022/02/01 16:03:27;;;;;;;18.50;11.23;;;7.90;99.90;;;;;;5088370;28;20200;-88
2022/02/01 16:06:02;;;;;;;19.80;12.75;;;9.50;99.90;;;;;;5082542;28;20225;-86
2022/02/01 16:08:35;;;;;;;16.90;11.73;;;8.60;99.90;;;;;;5054131;28;20181;-85
2022/02/01 16:11:07;;;;;;;22.50;11.93;;;11.80;99.90;;;;;;5052873;28;20202;-85